Skip to main content

NOAA/GLERL Met Station at Muskegon, MI

Previous 3 Hours (2 minute increments)
See also Previous 5 Days (top of hour)
Jump down to Data
Switch to [English][Metric]
Zoom: Click and drag, Pan: shift-click and drag, Unzoom: double-click, Unzoom All






See also 1-day windrose plot


NOAA/GLERL Met Station at Muskegon, MI

Previous 3 Hours (2 minute increments)
See also Previous 5 Days (top of hour only)
Jump up to Graphs
Switch to [English][Metric]
                  Wind  Wind  Wind   Air   Dew   Rel     Sta   PAR
                   Spd   Gst   Dir  Temp    Pt   Hum    Pres uE/m2/
YYYY-MM-DD   EDT   kts   kts   deg     F     F     %   in Hg   sec
2018-08-20 05:20   7.0  10.1   130  68.7  63.1  81.9   29.35     2
2018-08-20 05:18   6.8   9.7   128  68.7  63.0  81.8   29.35     2
2018-08-20 05:16   6.4   8.7   137  68.7  63.0  81.8   29.35     2
2018-08-20 05:14   4.9   7.8   131  68.7  63.0  81.6   29.35     2
2018-08-20 05:12   6.2   8.6   130  68.7  63.0  81.7   29.35     2
2018-08-20 05:10   5.1   6.6   125  68.7  63.0  81.6   29.35     2
2018-08-20 05:08   6.0   7.8   124  68.9  63.0  81.3   29.35     2
2018-08-20 05:06   7.2   8.2   125  68.9  63.0  81.3   29.35     2
2018-08-20 05:04   6.0   8.4   120  68.9  63.0  81.2   29.35     2
2018-08-20 05:02   5.8   9.1   127  68.9  62.9  80.9   29.35     2
2018-08-20 05:00   6.2   8.7   129  68.9  62.9  80.8   29.35     2
2018-08-20 04:58   6.8   9.7   125  69.1  63.0  80.7   29.35     2
2018-08-20 04:56   5.4   8.7   127  69.1  62.9  80.4   29.35     2
2018-08-20 04:54   6.6   8.9   130  69.1  62.7  79.9   29.35     2
2018-08-20 04:52   6.2   9.1   129  69.3  62.8  79.7   29.35     2
2018-08-20 04:50   7.0   9.3   135  69.3  62.8  79.7   29.35     2
2018-08-20 04:48   4.9   7.8   137  69.3  62.9  79.8   29.35     2
2018-08-20 04:46   5.6   7.4   132  69.3  62.8  79.7   29.35     2
2018-08-20 04:44   7.2  10.1   130  69.3  62.8  79.7   29.35     2
2018-08-20 04:42   6.8   9.7   124  69.3  62.8  79.6   29.35     2
2018-08-20 04:40   6.0   8.9   124  69.3  62.7  79.3   29.35     2
2018-08-20 04:38   6.2   7.2   116  69.3  62.4  78.6   29.35     2
2018-08-20 04:36   6.8   8.7   116  69.4  62.4  78.0   29.35     2
2018-08-20 04:34   8.0   9.7   117  69.6  62.3  77.2   29.35     2
2018-08-20 04:32   7.6   8.7   119  69.8  62.2  76.4   29.35     2
2018-08-20 04:30   7.0   8.4   120  69.8  62.0  76.0   29.35     2
2018-08-20 04:28   6.6   8.7   131  69.8  61.9  75.7   29.35     2
2018-08-20 04:26   6.0   8.7   136  70.0  62.0  75.4   29.35     2
2018-08-20 04:24   5.1   6.8   139  70.2  61.9  74.8   29.35     2
2018-08-20 04:22   5.1   7.2   147  70.5  62.0  74.1   29.35     2
2018-08-20 04:20   4.9   6.8   160  70.7  62.0  73.7   29.35     2
2018-08-20 04:18   4.7   6.6   158  70.7  62.0  73.6   29.35     2
2018-08-20 04:16   5.2   7.2   168  70.7  62.0  73.7   29.35     2
2018-08-20 04:14   5.2   6.4   162  70.7  62.0  73.7   29.35     2
2018-08-20 04:12   5.8   7.0   164  70.7  62.1  73.9   29.35     2
2018-08-20 04:10   7.0   8.0   173  70.3  62.0  74.4   29.35     2
2018-08-20 04:08   6.8   8.2   167  70.2  62.0  74.9   29.35     2
2018-08-20 04:06   7.4   8.9   171  69.6  61.8  75.8   29.35     2
2018-08-20 04:04   6.0   8.0   173  69.6  61.8  75.9   29.35     2
2018-08-20 04:02   5.6   7.4   169  69.6  61.9  76.0   29.35     2
2018-08-20 04:00   4.9   6.4   151  69.6  61.8  75.8   29.35     2
2018-08-20 03:58   4.5   6.4   143  69.6  61.7  75.6   29.35     2
2018-08-20 03:56   5.4   6.4   138  69.8  61.8  75.4   29.35     2
2018-08-20 03:54   5.6   7.0   132  69.8  61.7  75.2   29.35     2
2018-08-20 03:52   5.2   6.0   129  69.8  61.7  75.0   29.34     2
2018-08-20 03:50   4.5   6.0   138  69.8  61.5  74.7   29.34     2
2018-08-20 03:48   4.3   5.6   138  69.8  61.4  74.4   29.34     2
2018-08-20 03:46   4.3   5.6   146  69.8  61.4  74.4   29.34     2
2018-08-20 03:44   3.7   6.0   136  69.6  61.3  74.4   29.34     2
2018-08-20 03:42   4.9   6.2   135  69.6  61.1  74.1   29.34     2
2018-08-20 03:40   4.7   6.0   128  69.6  61.0  73.7   29.35     2
2018-08-20 03:38   4.7   6.0   128  69.6  61.0  73.6   29.35     2
2018-08-20 03:36   5.4   7.0   130  69.4  60.7  73.5   29.35     2
2018-08-20 03:34   5.2   6.4   128  69.4  60.7  73.5   29.35     2
2018-08-20 03:32   5.1   6.2   129  69.3  60.6  73.7   29.35     2
2018-08-20 03:30   5.6   6.8   123  69.1  60.5  73.7   29.35     2
2018-08-20 03:28   5.4   7.0   125  69.1  60.3  73.3   29.35     2
2018-08-20 03:26   5.8   7.0   119  69.1  60.2  73.1   29.35     2
2018-08-20 03:24   4.5   6.0   123  69.1  60.2  72.9   29.35     2
2018-08-20 03:22   4.3   6.2   125  69.1  60.1  72.8   29.35     2
2018-08-20 03:20   3.3   4.3   115  69.1  60.1  72.8   29.35     2
2018-08-20 03:18   2.7   4.1   115  69.1  60.3  73.2   29.35     2
2018-08-20 03:16   1.2   3.5   101  68.9  60.1  73.3   29.35     2
2018-08-20 03:14   0.4   2.1    66  69.1  60.2  73.0   29.35     2
2018-08-20 03:12   0.4   1.9    44  69.1  60.2  73.0   29.35     2
2018-08-20 03:10   0.0   0.0     0  69.1  60.2  73.1   29.35     2
2018-08-20 03:08   0.6   2.1   194  69.1  60.2  72.9   29.35     2
2018-08-20 03:06   1.2   2.1   168  69.1  59.9  72.2   29.35     2
2018-08-20 03:04   1.7   3.1   114  69.1  59.8  72.0   29.35     2
2018-08-20 03:02   2.1   3.1   114  69.1  59.8  71.9   29.35     2
2018-08-20 03:00   2.7   3.3   115  69.1  59.8  71.8   29.35     2
2018-08-20 02:58   3.3   5.1   118  69.3  59.8  71.6   29.35     2
2018-08-20 02:56   3.3   4.9   119  69.3  59.8  71.4   29.35     2
2018-08-20 02:54   2.7   4.1   116  69.3  59.6  71.0   29.35     2
2018-08-20 02:52   3.3   4.9   116  69.4  59.7  70.8   29.35     2
2018-08-20 02:50   5.1   6.8   124  69.4  59.7  70.8   29.35     2
2018-08-20 02:48   4.3   6.6   125  69.6  60.0  71.0   29.35     2
2018-08-20 02:46   5.2   6.8   130  69.6  60.0  71.2   29.35     2
2018-08-20 02:44   5.8   8.2   120  69.6  60.5  72.5   29.35     2
2018-08-20 02:42   6.8   8.4   119  69.4  61.6  75.7   29.35     2
2018-08-20 02:40   6.4   8.0   127  69.6  62.9  78.9   29.35     2
2018-08-20 02:38   7.6   9.1   113  69.6  63.1  79.5   29.35     2
2018-08-20 02:36   6.8   8.4   120  69.6  62.9  78.9   29.35     2
2018-08-20 02:34   8.4  10.7   116  69.6  63.0  79.1   29.35     2
2018-08-20 02:32   6.8   8.0   111  69.6  62.9  79.0   29.35     2
2018-08-20 02:30   6.2   8.0   108  69.6  62.8  78.5   29.35     2
2018-08-20 02:28   6.6   7.8   106  69.6  62.6  78.0   29.35     2
2018-08-20 02:26   6.8   7.8   111  69.6  62.9  79.0   29.35     2
2018-08-20 02:24   6.6   7.6   109  69.6  63.0  79.3   29.35     2
2018-08-20 02:22   6.6   7.8   105  69.6  63.2  79.7   29.35     2
2018-08-20 02:20   6.4   7.4   103  69.6  63.4  80.3   29.35     2